Time;durP1;ratioP1;P1;durP2;ratioP2;P2;SDS_P1;SDS_P2;PMS_P1;PMS_P2;Temp;Humidity;BMP_temperature;BMP_pressure;BME280_temperature;BME280_humidity;BME280_pressure;Samples;Min_cycle;Max_cycle;Signal;HPM_P1;HPM_P2
2021/08/25 00:01:34;;;;;;;23.63;8.32;;;;;;;12.97;77.55;100081.44;5048917;28;20405;-60
2021/08/25 00:04:00;;;;;;;30.52;8.85;;;;;;;13.00;77.58;100087.47;5029542;28;20412;-59
2021/08/25 00:06:26;;;;;;;17.02;8.27;;;;;;;13.01;77.51;100081.31;5012876;28;20053;-60
2021/08/25 00:08:52;;;;;;;22.45;8.20;;;;;;;13.05;77.48;100084.69;5044859;28;20041;-60
2021/08/25 00:11:18;;;;;;;23.15;8.00;;;;;;;12.89;77.97;100059.78;5029148;28;20084;-61
2021/08/25 00:13:44;;;;;;;22.77;8.38;;;;;;;12.94;77.78;100071.88;5030904;28;20103;-59
2021/08/25 00:16:11;;;;;;;21.90;8.23;;;;;;;12.98;78.06;100073.50;5049744;28;20452;-60
2021/08/25 00:18:37;;;;;;;20.55;8.07;;;;;;;12.85;77.56;100052.91;5048884;28;20148;-59
2021/08/25 00:21:03;;;;;;;27.02;9.10;;;;;;;12.96;77.44;100075.31;5031882;28;20136;-55
2021/08/25 00:23:29;;;;;;;27.73;9.10;;;;;;;13.00;77.98;100071.69;5031174;28;20044;-60
2021/08/25 00:26:02;;;;;;;18.58;8.90;;;;;;;12.95;78.12;100070.97;5033882;28;20114;-59
2021/08/25 00:28:28;;;;;;;27.00;8.75;;;;;;;12.94;77.63;100071.03;5050353;28;20045;-58
2021/08/25 00:30:54;;;;;;;28.50;9.50;;;;;;;12.82;77.57;100048.59;5049001;28;20037;-58
2021/08/25 00:33:20;;;;;;;35.75;9.15;;;;;;;12.91;77.80;100074.59;5049521;28;20040;-60
2021/08/25 00:35:45;;;;;;;32.90;9.57;;;;;;;12.76;77.67;100061.91;5015286;28;20049;-59
2021/08/25 00:38:11;;;;;;;28.33;9.77;;;;;;;12.88;77.75;100079.94;5031888;28;20053;-59
2021/08/25 00:40:37;;;;;;;27.10;9.02;;;;;;;12.87;77.53;100072.97;5052192;28;20037;-56
2021/08/25 00:43:07;;;;;;;35.58;9.48;;;;;;;12.94;77.27;100068.41;5031455;28;20038;-60
2021/08/25 00:45:41;;;;;;;27.48;10.43;;;;;;;12.95;77.05;100073.59;4999835;28;20048;-59
2021/08/25 00:48:07;;;;;;;28.92;9.27;;;;;;;12.98;76.75;100076.13;5032573;28;20052;-58
2021/08/25 00:50:35;;;;;;;31.90;8.45;;;;;;;12.98;77.01;100073.50;5016259;28;20064;-57
2021/08/25 00:53:03;;;;;;;32.25;9.80;;;;;;;12.96;77.43;100077.94;5015751;28;20053;-60
2021/08/25 00:55:35;;;;;;;26.63;9.13;;;;;;;12.96;76.80;100072.69;5034643;28;20468;-58
2021/08/25 00:58:01;;;;;;;26.92;9.25;;;;;;;12.87;76.68;100051.97;5021827;28;20060;-58
2021/08/25 01:00:26;;;;;;;31.42;10.25;;;;;;;12.99;76.80;100066.50;5036637;28;20048;-58
2021/08/25 01:03:03;;;;;;;20.15;9.30;;;;;;;12.96;76.61;100064.81;5052587;28;20041;-59
2021/08/25 01:05:30;;;;;;;22.33;9.23;;;;;;;12.96;76.73;100069.22;5019324;28;20045;-58
2021/08/25 01:07:57;;;;;;;25.27;9.77;;;;;;;12.91;76.81;100064.09;5036887;28;20041;-55
2021/08/25 01:10:24;;;;;;;20.65;8.38;;;;;;;12.85;77.22;100056.38;5018867;28;20414;-60
2021/08/25 01:12:51;;;;;;;30.05;8.73;;;;;;;12.80;77.07;100052.19;5051436;28;20048;-60
2021/08/25 01:15:17;;;;;;;25.05;9.48;;;;;;;12.89;77.74;100073.78;5050541;28;20410;-59
2021/08/25 01:17:44;;;;;;;24.75;8.90;;;;;;;12.93;77.04;100064.91;5049827;28;20049;-60
2021/08/25 01:20:11;;;;;;;28.30;9.77;;;;;;;12.96;76.72;100075.31;5051724;28;20521;-58
2021/08/25 01:22:41;;;;;;;23.95;8.90;;;;;;;12.93;76.85;100070.16;5051578;28;20072;-61
2021/08/25 01:25:08;;;;;;;26.30;8.73;;;;;;;12.95;76.68;100067.50;5017746;28;20041;-60
2021/08/25 01:27:38;;;;;;;24.40;9.63;;;;;;;12.92;76.89;100068.44;5051687;28;20142;-59
2021/08/25 01:30:05;;;;;;;28.65;9.73;;;;;;;12.82;77.01;100061.72;5030763;28;20077;-59
2021/08/25 01:32:34;;;;;;;22.95;9.77;;;;;;;12.86;77.41;100062.50;5031682;28;20107;-57
2021/08/25 01:35:00;;;;;;;28.80;10.95;;;;;;;12.77;78.02;100068.88;5015000;28;20056;-60
2021/08/25 01:37:26;;;;;;;29.10;11.18;;;;;;;12.81;77.83;100070.50;5031790;28;20065;-59
2021/08/25 01:39:53;;;;;;;19.67;8.00;;;;;;;12.85;76.89;100060.78;5032656;28;20050;-58
2021/08/25 01:42:19;;;;;;;20.80;8.00;;;;;;;12.73;74.23;100046.25;5029910;28;20413;-60
2021/08/25 01:44:46;;;;;;;17.83;8.07;;;;;;;12.80;73.98;100062.69;5033952;28;20092;-56
2021/08/25 01:47:16;;;;;;;20.77;8.02;;;;;;;12.75;75.88;100057.56;5050984;28;20124;-58
2021/08/25 01:49:45;;;;;;;21.60;7.53;;;;;;;12.71;75.90;100038.41;5051012;28;20552;-59
2021/08/25 01:52:15;;;;;;;18.38;7.95;;;;;;;12.68;75.72;100040.25;5052388;28;20033;-59
2021/08/25 01:54:43;;;;;;;23.17;8.00;;;;;;;12.81;75.92;100070.50;5018188;28;20171;-58
2021/08/25 01:57:09;;;;;;;16.48;8.65;;;;;;;12.85;75.95;100069.50;5051876;28;20040;-55
2021/08/25 01:59:35;;;;;;;21.73;7.90;;;;;;;12.66;75.69;100042.06;5019373;28;20047;-55
2021/08/25 02:02:01;;;;;;;16.95;7.50;;;;;;;12.77;76.13;100063.63;5035187;28;20040;-59
2021/08/25 02:04:27;;;;;;;16.70;7.50;;;;;;;12.67;75.04;100047.28;5035980;28;20106;-58
2021/08/25 02:06:54;;;;;;;23.70;8.43;;;;;;;12.79;75.13;100053.94;5035245;28;20037;-58
2021/08/25 02:09:20;;;;;;;17.38;8.02;;;;;;;12.86;73.66;100062.50;5051087;28;20049;-60
2021/08/25 02:11:46;;;;;;;13.85;6.68;;;;;;;12.86;73.84;100062.50;5050860;28;20045;-60
2021/08/25 02:14:12;;;;;;;14.77;6.65;;;;;;;12.85;72.10;100053.75;5035004;28;20059;-56
2021/08/25 02:16:38;;;;;;;14.75;6.82;;;;;;;12.93;72.70;100058.78;5017237;28;20144;-60
2021/08/25 02:19:03;;;;;;;14.80;6.75;;;;;;;12.98;68.78;100055.13;5017336;28;20533;-57
2021/08/25 02:21:29;;;;;;;13.85;6.80;;;;;;;13.06;70.24;100060.16;5032437;28;20517;-58
2021/08/25 02:23:55;;;;;;;13.68;6.90;;;;;;;13.16;70.38;100051.09;5050234;28;20056;-58
2021/08/25 02:26:21;;;;;;;12.23;6.63;;;;;;;13.16;67.93;100050.25;5049277;28;20076;-57
2021/08/25 02:28:48;;;;;;;15.23;6.85;;;;;;;13.04;66.82;100038.34;5051226;28;20045;-55
2021/08/25 02:31:15;;;;;;;12.80;6.63;;;;;;;13.20;68.96;100046.66;5050796;28;20045;-60
2021/08/25 02:33:41;;;;;;;11.98;6.13;;;;;;;13.39;65.38;100063.59;5050176;28;20037;-57
2021/08/25 02:36:08;;;;;;;10.95;6.93;;;;;;;13.21;68.28;100009.84;5049789;28;20060;-57
2021/08/25 02:38:35;;;;;;;13.63;6.22;;;;;;;13.49;67.86;100051.91;5033566;28;20048;-60
2021/08/25 02:41:02;;;;;;;13.27;6.47;;;;;;;13.46;67.42;100048.50;5029701;28;20140;-58
2021/08/25 02:43:28;;;;;;;15.65;6.97;;;;;;;13.37;67.81;100060.13;5029963;28;20037;-58
2021/08/25 02:45:54;;;;;;;13.63;6.22;;;;;;;13.32;67.54;100055.03;5031887;28;20095;-59
2021/08/25 02:48:19;;;;;;;15.13;7.35;;;;;;;13.35;66.35;100051.44;5030368;28;20506;-60
2021/08/25 02:50:45;;;;;;;20.15;6.80;;;;;;;13.25;68.28;100039.50;5030612;28;20534;-60
2021/08/25 02:53:11;;;;;;;12.15;7.03;;;;;;;13.33;63.40;100053.25;5014012;28;20041;-59
2021/08/25 02:55:36;;;;;;;19.15;6.57;;;;;;;13.34;63.73;100054.97;5047278;28;20056;-56
2021/08/25 02:58:02;;;;;;;16.15;6.15;;;;;;;13.30;63.32;100041.06;5050219;28;20572;-59
2021/08/25 03:00:28;;;;;;;17.00;6.88;;;;;;;13.49;63.16;100066.81;5033335;28;20063;-59
2021/08/25 03:02:54;;;;;;;16.25;6.63;;;;;;;13.48;62.48;100071.22;5048907;28;20063;-56
2021/08/25 03:05:20;;;;;;;11.25;5.68;;;;;;;13.29;62.09;100046.38;5050027;28;20045;-59
2021/08/25 03:07:45;;;;;;;12.18;6.05;;;;;;;13.31;61.40;100042.78;5050899;28;20067;-60
2021/08/25 03:10:11;;;;;;;11.35;5.93;;;;;;;13.47;60.75;100061.59;5031278;28;20502;-57
2021/08/25 03:12:37;;;;;;;10.10;5.95;;;;;;;13.47;59.66;100069.50;5050862;28;20041;-60
2021/08/25 03:15:05;;;;;;;9.05;5.70;;;;;;;13.49;60.00;100059.78;5050208;28;20041;-60
2021/08/25 03:17:31;;;;;;;11.73;6.20;;;;;;;13.33;60.98;100045.38;5032850;28;20506;-59
2021/08/25 03:19:57;;;;;;;10.90;6.60;;;;;;;13.34;64.73;100062.84;5049987;28;20098;-58
2021/08/25 03:22:22;;;;;;;11.35;6.43;;;;;;;13.31;61.45;100050.66;5032401;28;20083;-58
2021/08/25 03:24:48;;;;;;;11.73;5.63;;;;;;;13.38;60.45;100066.25;5032420;28;20146;-60
2021/08/25 03:27:14;;;;;;;17.33;7.07;;;;;;;13.35;61.17;100064.56;5031310;28;20040;-60
2021/08/25 03:29:40;;;;;;;17.33;6.85;;;;;;;13.44;67.44;100077.47;5031521;28;20120;-58
2021/08/25 03:32:06;;;;;;;14.75;7.10;;;;;;;13.39;66.69;100074.13;5030950;28;20067;-60
2021/08/25 03:34:32;;;;;;;9.63;6.03;;;;;;;13.22;64.73;100044.84;5014999;28;20041;-58
2021/08/25 03:36:58;;;;;;;18.65;6.40;;;;;;;13.35;67.37;100070.69;5030834;28;20064;-61
2021/08/25 03:39:23;;;;;;;11.95;6.90;;;;;;;13.34;67.24;100070.75;5031759;28;20132;-59
2021/08/25 03:41:49;;;;;;;13.10;7.65;;;;;;;13.34;65.08;100065.47;5031951;28;20056;-56
2021/08/25 03:44:15;;;;;;;18.40;7.97;;;;;;;13.35;64.80;100041.78;5032001;28;20072;-60
2021/08/25 03:46:40;;;;;;;16.15;9.38;;;;;;;13.68;63.24;100065.31;5049215;28;20049;-61
2021/08/25 03:49:06;;;;;;;17.20;9.20;;;;;;;14.63;59.80;100058.63;5014970;28;20037;-61
2021/08/25 03:51:32;;;;;;;21.35;9.10;;;;;;;15.71;53.63;100059.00;5031776;28;20051;-63
2021/08/25 03:53:58;;;;;;;13.98;8.48;;;;;;;16.77;49.86;100064.22;5031157;28;20041;-60
2021/08/25 03:56:23;;;;;;;20.15;8.55;;;;;;;17.50;49.14;100056.50;5015984;28;20044;-58
2021/08/25 03:58:49;;;;;;;15.95;8.38;;;;;;;18.14;46.42;100051.63;5015719;28;20048;-58
2021/08/25 04:01:15;;;;;;;16.40;8.80;;;;;;;18.93;49.77;100059.94;5051213;28;20417;-59
2021/08/25 04:03:41;;;;;;;11.88;7.30;;;;;;;19.61;46.70;100069.47;5015667;28;20041;-60
2021/08/25 04:06:06;;;;;;;13.68;6.93;;;;;;;20.10;45.93;100060.50;5050381;28;20140;-58
2021/08/25 04:08:32;;;;;;;14.30;7.55;;;;;;;20.51;40.72;100060.75;5049150;28;20510;-60
2021/08/25 04:10:58;;;;;;;13.48;7.45;;;;;;;21.09;41.37;100062.53;5049608;28;20087;-60
2021/08/25 04:13:23;;;;;;;10.50;7.32;;;;;;;21.49;39.60;100056.41;5033132;28;20203;-58
2021/08/25 04:15:49;;;;;;;12.25;7.10;;;;;;;21.84;39.05;100040.84;5035250;28;20044;-61
2021/08/25 04:18:15;;;;;;;15.30;7.28;;;;;;;22.33;37.28;100045.59;5053129;28;20090;-61
2021/08/25 04:20:41;;;;;;;15.82;7.53;;;;;;;22.50;36.10;100063.97;5050739;28;20134;-62
2021/08/25 04:23:06;;;;;;;18.02;8.45;;;;;;;22.71;35.69;100052.78;5049284;28;20066;-61
2021/08/25 04:25:32;;;;;;;24.30;9.55;;;;;;;22.60;35.65;100060.66;5016496;28;20056;-62
2021/08/25 04:27:58;;;;;;;28.38;9.98;;;;;;;22.47;35.54;100034.84;5034115;28;20084;-61
2021/08/25 04:30:24;;;;;;;28.00;10.82;;;;;;;22.29;35.39;100057.41;5051618;28;20041;-60
2021/08/25 04:32:50;;;;;;;28.13;11.38;;;;;;;22.58;34.58;100033.25;5034282;28;20541;-61
2021/08/25 04:35:15;;;;;;;27.75;10.70;;;;;;;22.77;33.63;100031.00;5034985;28;20049;-60
2021/08/25 04:37:41;;;;;;;27.77;9.20;;;;;;;22.71;33.50;100058.09;5050928;28;20109;-61
2021/08/25 04:40:07;;;;;;;20.58;8.05;;;;;;;22.77;33.51;100044.34;5002525;28;20037;-60
2021/08/25 04:42:33;;;;;;;21.02;9.02;;;;;;;23.36;34.32;100041.97;5050859;28;20128;-58
2021/08/25 04:44:58;;;;;;;27.17;9.70;;;;;;;23.54;34.03;100048.63;5035492;28;20065;-60
2021/08/25 04:47:24;;;;;;;21.75;7.75;;;;;;;23.05;32.15;100041.50;5001832;28;20041;-60
2021/08/25 04:49:50;;;;;;;30.80;8.90;;;;;;;22.01;34.62;100034.38;5035763;28;20037;-61
2021/08/25 04:52:16;;;;;;;39.88;10.00;;;;;;;20.99;35.69;100026.81;5051088;28;20037;-61
2021/08/25 04:54:42;;;;;;;33.55;8.23;;;;;;;19.99;35.95;100013.31;5051691;28;20084;-60
2021/08/25 04:57:07;;;;;;;20.27;6.93;;;;;;;19.48;37.34;100022.44;5018811;28;20119;-61
2021/08/25 04:59:33;;;;;;;22.85;7.20;;;;;;;19.01;38.31;100026.75;5051373;28;20080;-61
2021/08/25 05:01:59;;;;;;;31.77;7.22;;;;;;;18.85;38.58;100035.63;5034758;28;20048;-61
2021/08/25 05:04:24;;;;;;;14.95;7.43;;;;;;;18.33;40.46;100025.06;5051941;28;20051;-60
2021/08/25 05:06:50;;;;;;;21.65;6.38;;;;;;;18.09;40.02;100013.94;5030874;28;20095;-60
2021/08/25 05:09:16;;;;;;;14.05;6.65;;;;;;;17.93;41.10;100029.72;5032166;28;20071;-63
2021/08/25 05:11:41;;;;;;;20.75;7.05;;;;;;;17.75;41.57;100027.97;4997210;28;20052;-58
2021/08/25 05:14:07;;;;;;;18.85;6.93;;;;;;;17.70;41.90;100027.31;4997693;28;20037;-61
2021/08/25 05:16:33;;;;;;;10.65;6.40;;;;;;;17.69;42.11;100030.91;5031353;28;20041;-62
2021/08/25 05:18:59;;;;;;;17.65;5.70;;;;;;;17.58;40.98;100028.75;5031981;28;20049;-59
2021/08/25 05:21:26;;;;;;;17.20;6.63;;;;;;;17.54;41.92;100029.81;5031970;28;20033;-61
2021/08/25 05:23:52;;;;;;;10.70;5.38;;;;;;;17.42;40.94;100025.97;5029802;28;20087;-60
2021/08/25 05:26:18;;;;;;;12.93;5.55;;;;;;;17.48;42.51;100024.84;5027974;28;20087;-60
2021/08/25 05:28:44;;;;;;;14.18;5.60;;;;;;;17.44;42.33;100026.78;5030870;28;20064;-61
2021/08/25 05:31:09;;;;;;;9.55;5.70;;;;;;;17.40;40.68;100019.91;5012703;28;20049;-60
2021/08/25 05:33:35;;;;;;;21.30;6.22;;;;;;;17.22;41.62;99982.91;5029509;28;20068;-59
2021/08/25 05:36:01;;;;;;;20.48;6.30;;;;;;;17.45;41.40;100028.47;5011554;28;20077;-62
2021/08/25 05:38:27;;;;;;;11.10;5.65;;;;;;;17.30;42.18;100005.41;5027484;28;20087;-60
2021/08/25 05:40:53;;;;;;;24.70;6.78;;;;;;;17.33;41.70;100018.50;5029100;28;20593;-61
2021/08/25 05:43:18;;;;;;;20.40;6.07;;;;;;;17.38;42.14;100023.56;5012329;28;20053;-59
2021/08/25 05:45:44;;;;;;;12.20;6.38;;;;;;;17.25;42.43;100019.78;5030165;28;20045;-56
2021/08/25 05:48:10;;;;;;;10.68;5.95;;;;;;;17.32;43.25;100021.22;5029744;28;20033;-54
2021/08/25 05:50:36;;;;;;;21.17;6.45;;;;;;;17.45;42.16;100017.91;5015851;28;20091;-52
2021/08/25 05:53:02;;;;;;;11.00;5.32;;;;;;;17.56;43.13;100014.75;5028974;28;20449;-59
2021/08/25 05:55:28;;;;;;;10.35;5.43;;;;;;;17.45;41.60;100003.81;5030425;28;20045;-57
2021/08/25 05:57:53;;;;;;;10.40;5.60;;;;;;;17.51;42.57;100010.59;5011199;28;20625;-58
2021/08/25 06:00:20;;;;;;;14.40;5.70;;;;;;;17.56;41.84;100013.88;5027656;28;20099;-61
2021/08/25 06:02:46;;;;;;;11.93;5.90;;;;;;;18.44;40.49;100017.41;5028192;28;20111;-61
2021/08/25 06:05:13;;;;;;;24.65;6.57;;;;;;;19.57;37.70;100014.84;5030830;28;20052;-61
2021/08/25 06:07:39;;;;;;;10.20;5.60;;;;;;;20.76;35.83;100002.47;5047967;28;20455;-61
2021/08/25 06:10:06;;;;;;;14.25;5.72;;;;;;;21.35;33.87;100015.66;5014059;28;20075;-61
2021/08/25 06:12:32;;;;;;;9.82;5.70;;;;;;;22.05;32.82;100025.25;5030821;28;20992;-63
2021/08/25 06:14:58;;;;;;;10.65;5.72;;;;;;;23.48;30.20;100025.06;5048027;28;20037;-60
2021/08/25 06:17:23;;;;;;;7.60;5.00;;;;;;;24.11;30.07;100013.25;5047537;28;20384;-60
2021/08/25 06:19:51;;;;;;;6.43;4.63;;;;;;;24.42;28.53;100009.13;5030551;28;20068;-62
2021/08/25 06:22:23;;;;;;;12.02;6.57;;;;;;;24.74;28.13;100006.63;5033299;28;20518;-61
2021/08/25 06:24:50;;;;;;;14.32;6.07;;;;;;;24.82;28.44;99993.50;5048692;28;20072;-59
2021/08/25 06:27:16;;;;;;;9.50;5.75;;;;;;;25.30;28.15;99990.59;5048102;28;20068;-61
2021/08/25 06:29:42;;;;;;;13.18;6.60;;;;;;;25.21;27.83;99989.50;5033881;28;20486;-59
2021/08/25 06:32:07;;;;;;;13.32;6.00;;;;;;;25.78;27.09;99990.25;5048038;28;20037;-59
2021/08/25 06:34:34;;;;;;;7.25;5.85;;;;;;;27.01;25.14;99982.34;5026219;28;20041;-59
2021/08/25 06:37:00;;;;;;;8.70;5.40;;;;;;;27.87;23.98;99998.81;5011343;28;20080;-60
2021/08/25 06:39:26;;;;;;;9.68;5.13;;;;;;;27.78;24.53;99982.53;5013820;28;20073;-60
2021/08/25 06:41:51;;;;;;;12.35;5.45;;;;;;;28.05;23.72;99992.56;5048563;28;20040;-61
2021/08/25 06:44:17;;;;;;;8.38;5.55;;;;;;;28.34;23.58;99981.00;5048091;28;20604;-61
2021/08/25 06:46:43;;;;;;;6.82;5.22;;;;;;;27.76;24.39;99989.03;5046352;28;20156;-60
2021/08/25 06:49:08;;;;;;;11.95;5.70;;;;;;;26.55;24.85;99970.22;5030204;28;20061;-61
2021/08/25 06:51:34;;;;;;;6.72;5.10;;;;;;;26.95;25.82;99988.22;5045523;28;20127;-61
2021/08/25 06:54:00;;;;;;;9.45;5.43;;;;;;;26.19;25.37;99984.94;5045361;28;20055;-60
2021/08/25 06:56:26;;;;;;;6.43;5.10;;;;;;;26.43;25.42;99981.16;5046144;28;20414;-60
2021/08/25 06:58:52;;;;;;;8.60;5.07;;;;;;;27.13;24.40;99988.47;5048816;28;20040;-60
2021/08/25 07:01:17;;;;;;;6.63;5.00;;;;;;;27.73;23.67;99987.50;5030384;28;20041;-62
2021/08/25 07:03:43;;;;;;;11.50;5.43;;;;;;;27.74;24.18;99980.28;5031583;28;20052;-59
2021/08/25 07:06:09;;;;;;;7.65;5.47;;;;;;;28.21;22.46;99985.75;5049400;28;20494;-55
2021/08/25 07:08:35;;;;;;;5.93;4.22;;;;;;;26.73;24.10;99989.22;5047949;28;20041;-58
2021/08/25 07:11:00;;;;;;;6.63;4.57;;;;;;;26.34;24.72;99987.31;5047932;28;20143;-62
2021/08/25 07:13:27;;;;;;;9.35;5.40;;;;;;;25.07;28.09;99992.44;5049300;28;20049;-62
2021/08/25 07:15:52;;;;;;;6.93;5.22;;;;;;;24.95;27.51;99980.84;5048492;28;20187;-61
2021/08/25 07:18:18;;;;;;;8.25;5.22;;;;;;;25.81;26.38;99976.59;5049808;28;20124;-55
2021/08/25 07:20:45;;;;;;;7.22;5.30;;;;;;;26.68;24.32;99986.09;5032138;28;20359;-56
2021/08/25 07:23:10;;;;;;;11.18;5.70;;;;;;;26.87;24.32;99990.75;5047424;28;20453;-59
2021/08/25 07:25:36;;;;;;;9.55;5.75;;;;;;;27.20;23.79;99968.97;5049069;28;20041;-55
2021/08/25 07:28:01;;;;;;;8.15;5.18;;;;;;;27.68;23.62;99968.25;5048595;28;20041;-58
2021/08/25 07:30:27;;;;;;;9.90;5.53;;;;;;;27.97;23.02;99984.38;5030410;28;20053;-56
2021/08/25 07:32:53;;;;;;;7.63;5.40;;;;;;;28.31;22.63;99975.91;5030309;28;20059;-56
2021/08/25 07:35:19;;;;;;;10.93;5.78;;;;;;;27.80;23.60;99985.94;5048223;28;20503;-54
2021/08/25 07:37:44;;;;;;;7.90;5.38;;;;;;;27.29;24.61;99985.25;5046828;28;20148;-56
2021/08/25 07:40:10;;;;;;;9.25;5.97;;;;;;;27.34;23.54;99978.47;5049617;28;20417;-58
2021/08/25 07:42:36;;;;;;;10.88;5.82;;;;;;;28.83;22.42;99987.06;5049598;28;20075;-56
2021/08/25 07:45:02;;;;;;;11.65;5.70;;;;;;;29.23;21.62;99970.63;5048614;28;20451;-56
2021/08/25 07:47:28;;;;;;;8.45;5.40;;;;;;;29.53;21.24;99966.75;5049467;28;20132;-55
2021/08/25 07:49:54;;;;;;;10.80;5.43;;;;;;;29.23;21.71;99968.78;5031498;28;20136;-57
2021/08/25 07:52:20;;;;;;;8.30;5.40;;;;;;;29.73;21.68;99973.72;5049188;28;20041;-58
2021/08/25 07:54:45;;;;;;;12.15;9.27;;;;;;;28.70;22.35;99982.00;5049185;28;20120;-56
2021/08/25 07:57:11;;;;;;;9.60;5.50;;;;;;;28.87;22.13;99975.03;5048060;28;20589;-57
2021/08/25 07:59:37;;;;;;;10.32;5.72;;;;;;;28.75;22.67;99967.09;5048776;28;20048;-56
2021/08/25 08:02:03;;;;;;;7.05;5.38;;;;;;;28.39;22.65;99944.56;5050210;28;20449;-58
2021/08/25 08:04:28;;;;;;;12.27;5.95;;;;;;;28.90;21.30;99937.03;5050188;28;20068;-60
2021/08/25 08:06:54;;;;;;;10.18;5.35;;;;;;;30.15;20.75;99975.78;5048680;28;20049;-57
2021/08/25 08:09:20;;;;;;;8.48;5.03;;;;;;;30.51;20.01;99969.34;5049765;28;20470;-54
2021/08/25 08:11:46;;;;;;;10.50;6.30;;;;;;;28.41;22.84;99974.88;5050012;28;20052;-52
2021/08/25 08:14:12;;;;;;;12.50;6.18;;;;;;;28.10;22.53;99971.47;5050026;28;20056;-56
2021/08/25 08:16:43;;;;;;;8.13;5.97;;;;;;;27.88;23.17;99966.41;5050330;28;20051;-56
2021/08/25 08:19:23;;;;;;;18.88;6.00;;;;;;;28.69;22.08;99965.00;5050440;28;20504;-57
2021/08/25 08:21:50;;;;;;;9.07;5.35;;;;;;;27.97;22.50;99945.88;5050301;28;20545;-58
2021/08/25 08:24:16;;;;;;;9.70;5.55;;;;;;;28.60;22.82;99952.44;5049817;28;20049;-56
2021/08/25 08:26:42;;;;;;;8.40;5.25;;;;;;;28.91;22.10;99949.50;5049845;28;20131;-58
2021/08/25 08:29:08;;;;;;;10.65;5.40;;;;;;;28.15;23.34;99949.53;5050033;28;20125;-57
2021/08/25 08:31:34;;;;;;;19.90;5.55;;;;;;;27.52;24.95;99941.91;5050143;28;20037;-55
2021/08/25 08:34:00;;;;;;;12.15;5.20;;;;;;;27.77;23.22;99929.75;5049755;28;20051;-58
2021/08/25 08:36:25;;;;;;;8.30;4.70;;;;;;;28.31;22.41;99932.84;5049505;28;20052;-58
2021/08/25 08:38:52;;;;;;;9.77;5.20;;;;;;;27.09;23.21;99949.44;5049850;28;20041;-54
2021/08/25 08:41:17;;;;;;;9.82;4.97;;;;;;;25.26;26.00;99931.06;5049813;28;20048;-57
2021/08/25 08:43:46;;;;;;;7.78;5.72;;;;;;;25.13;26.21;99919.66;5048803;28;20049;-58
2021/08/25 08:46:20;;;;;;;8.73;5.20;;;;;;;24.48;26.63;99914.19;5049744;28;20517;-57
2021/08/25 08:48:47;;;;;;;5.45;4.93;;;;;;;24.32;26.86;99939.47;5048480;28;20072;-56
2021/08/25 08:51:18;;;;;;;9.43;5.78;;;;;;;23.93;26.65;99937.16;5048486;28;20076;-59
2021/08/25 08:53:44;;;;;;;7.78;5.30;;;;;;;24.56;26.72;99928.69;5048516;28;20056;-56
2021/08/25 08:56:10;;;;;;;10.98;5.90;;;;;;;26.19;26.75;99917.06;5031913;28;20072;-56
2021/08/25 08:58:40;;;;;;;9.13;5.43;;;;;;;26.01;25.65;99942.72;5049803;28;20075;-59
2021/08/25 09:01:07;;;;;;;7.50;5.10;;;;;;;25.77;26.78;99932.25;5052163;28;20033;-56
2021/08/25 09:03:36;;;;;;;8.68;4.80;;;;;;;24.84;27.85;99913.97;5053377;28;20040;-55
2021/08/25 09:06:03;;;;;;;7.85;5.32;;;;;;;24.97;28.51;99919.16;5052842;28;20041;-58
2021/08/25 09:08:34;;;;;;;26.70;7.30;;;;;;;25.60;27.20;99930.97;5051646;28;20045;-54
2021/08/25 09:11:06;;;;;;;6.97;4.80;;;;;;;25.17;28.00;99921.09;5053187;28;20036;-58
2021/08/25 09:13:34;;;;;;;8.32;5.13;;;;;;;25.07;29.08;99913.94;5053162;28;20075;-58
2021/08/25 09:16:00;;;;;;;10.32;5.78;;;;;;;24.14;29.73;99921.31;5051411;28;20041;-59
2021/08/25 09:18:26;;;;;;;9.18;5.90;;;;;;;23.74;31.66;99933.19;5052871;28;20040;-58
2021/08/25 09:20:52;;;;;;;7.10;5.50;;;;;;;23.24;31.04;99922.75;5053088;28;20045;-65
2021/08/25 09:23:23;;;;;;;12.55;5.40;;;;;;;22.76;33.28;99922.63;5053039;28;20059;-59
2021/08/25 09:25:52;;;;;;;18.10;5.68;;;;;;;22.29;34.07;99918.81;5052838;28;20417;-56
2021/08/25 09:28:25;;;;;;;12.88;5.78;;;;;;;22.29;33.51;99913.47;5051713;28;20084;-58
2021/08/25 09:31:02;;;;;;;10.23;5.60;;;;;;;22.39;33.93;99921.72;5051836;28;20044;-63
2021/08/25 09:33:30;;;;;;;11.70;6.15;;;;;;;22.10;34.61;99905.06;5027478;28;20139;-60
2021/08/25 09:35:59;;;;;;;12.65;5.60;;;;;;;22.32;34.24;99907.13;5051835;28;20461;-61
2021/08/25 09:38:26;;;;;;;7.88;4.97;;;;;;;22.37;34.22;99907.63;5052472;28;20049;-61
2021/08/25 09:41:00;;;;;;;15.38;5.90;;;;;;;22.42;34.15;99903.69;5032312;28;20067;-63
2021/08/25 09:43:42;;;;;;;6.95;5.20;;;;;;;22.56;34.51;99909.84;5031378;28;20052;-60
2021/08/25 09:46:17;;;;;;;9.23;5.78;;;;;;;22.59;33.84;99915.81;5046382;28;20044;-60
2021/08/25 09:48:44;;;;;;;9.65;5.63;;;;;;;22.31;35.01;99908.94;5048314;28;20045;-59
2021/08/25 09:51:11;;;;;;;9.95;5.43;;;;;;;22.32;36.39;99915.97;5029100;28;20168;-58
2021/08/25 09:53:38;;;;;;;11.40;5.57;;;;;;;22.38;34.96;99907.53;5013268;28;20041;-55
2021/08/25 09:56:23;;;;;;;11.40;5.03;;;;;;;21.42;36.60;99903.41;5029193;28;20044;-57
2021/08/25 09:58:51;;;;;;;11.25;5.72;;;;;;;20.65;37.82;99898.63;5048116;28;20048;-54
2021/08/25 10:01:18;;;;;;;8.98;5.22;;;;;;;20.80;37.97;99879.03;5046329;28;20033;-54
2021/08/25 10:03:44;;;;;;;11.52;5.38;;;;;;;20.97;37.75;99903.72;5048736;28;20144;-57
2021/08/25 10:06:10;;;;;;;9.65;5.60;;;;;;;20.68;39.48;99892.25;5030662;28;20037;-57
2021/08/25 10:08:38;;;;;;;9.60;5.30;;;;;;;20.67;39.89;99877.25;5030744;28;20632;-55
2021/08/25 10:11:07;;;;;;;13.85;5.05;;;;;;;21.30;38.57;99900.69;5047255;28;21316;-55
2021/08/25 10:13:32;;;;;;;11.32;6.28;;;;;;;21.32;38.27;99896.97;5030214;28;20041;-56
2021/08/25 10:15:58;;;;;;;10.02;5.40;;;;;;;21.08;38.16;99880.78;5014264;28;20037;-54
2021/08/25 10:18:29;;;;;;;9.82;5.10;;;;;;;21.30;37.41;99895.38;5028710;28;20052;-55
2021/08/25 10:20:57;;;;;;;8.40;4.90;;;;;;;20.60;38.76;99868.81;5047301;28;20041;-56
2021/08/25 10:23:58;;;;;;;8.63;5.50;;;;;;;20.39;40.36;99886.09;5044454;28;20458;-60
2021/08/25 10:26:25;;;;;;;14.80;4.93;;;;;;;20.29;40.64;99888.47;5046434;28;20098;-57
2021/08/25 10:29:11;;;;;;;8.65;5.18;;;;;;;20.16;40.28;99896.34;5045602;28;20048;-61
2021/08/25 10:31:49;;;;;;;9.68;5.22;;;;;;;20.24;40.28;99882.59;5045873;28;20498;-53
2021/08/25 10:34:21;;;;;;;9.10;5.32;;;;;;;20.24;41.09;99891.41;5047680;28;20091;-56
2021/08/25 10:36:48;;;;;;;11.43;5.28;;;;;;;20.41;41.20;99879.75;5046682;28;20063;-59
2021/08/25 10:39:29;;;;;;;8.20;4.95;;;;;;;19.98;41.18;99894.75;5025775;28;20044;-54
2021/08/25 10:41:59;;;;;;;8.13;5.38;;;;;;;19.90;41.59;99894.38;5026616;28;20044;-58
2021/08/25 10:44:37;;;;;;;11.15;5.38;;;;;;;19.89;41.33;99890.88;5040076;28;20044;-55
2021/08/25 10:47:07;;;;;;;9.27;5.75;;;;;;;19.75;41.03;99845.72;5036610;28;20040;-61
2021/08/25 10:49:38;;;;;;;9.85;5.10;;;;;;;20.29;40.62;99885.81;5045041;28;20036;-57
2021/08/25 10:52:17;;;;;;;6.57;5.03;;;;;;;20.58;40.26;99890.19;5041234;28;20074;-55
2021/08/25 10:54:48;;;;;;;8.63;5.07;;;;;;;20.79;39.69;99887.09;5049752;28;20052;-55
2021/08/25 10:57:23;;;;;;;10.30;5.03;;;;;;;20.94;39.06;99884.34;5047730;28;20470;-57
2021/08/25 10:59:49;;;;;;;7.88;5.50;;;;;;;20.79;40.80;99868.50;5047125;28;20044;-56
2021/08/25 11:02:15;;;;;;;12.63;6.25;;;;;;;20.76;40.36;99884.66;5048133;28;20044;-59
2021/08/25 11:04:41;;;;;;;9.48;5.53;;;;;;;20.38;41.01;99884.38;5049245;28;20033;-56
2021/08/25 11:07:13;;;;;;;11.38;4.88;;;;;;;20.69;40.33;99888.66;5048802;28;20532;-55
2021/08/25 11:09:43;;;;;;;8.88;5.90;;;;;;;20.93;40.44;99887.09;5047925;28;20052;-59
2021/08/25 11:12:14;;;;;;;9.73;5.72;;;;;;;20.46;41.05;99880.31;5031127;28;20336;-55
2021/08/25 11:14:49;;;;;;;8.40;4.95;;;;;;;20.24;41.38;99871.94;5047431;28;20131;-56
2021/08/25 11:17:21;;;;;;;9.63;5.50;;;;;;;20.28;41.53;99890.25;5049669;28;20044;-57
2021/08/25 11:19:47;;;;;;;8.32;4.95;;;;;;;20.24;42.19;99894.06;5030343;28;20498;-56
2021/08/25 11:22:23;;;;;;;9.60;5.18;;;;;;;20.22;42.01;99860.56;5047890;28;20044;-56